Time;durP1;ratioP1;P1;durP2;ratioP2;P2;SDS_P1;SDS_P2;PMS_P1;PMS_P2;Temp;Humidity;BMP_temperature;BMP_pressure;BME280_temperature;BME280_humidity;BME280_pressure;Samples;Min_cycle;Max_cycle;Signal;HPM_P1;HPM_P2
2022/05/05 00:00:45;;;;;;;;;;;;;;;18.70;61.75;100074.63;2088418;28;19919;-63
2022/05/05 00:01:45;;;;;;;;;;;;;;;18.69;61.73;100072.91;2088769;28;19923;-62
2022/05/05 00:02:49;;;;;;;;;;;;;;;18.70;61.74;100069.16;2096108;28;19916;-63
2022/05/05 00:03:49;;;;;;;;;;;;;;;18.71;61.72;100072.72;2093730;28;20802;-65
2022/05/05 00:04:49;;;;;;;;;;;;;;;18.70;61.75;100071.88;2088228;28;20358;-64
2022/05/05 00:05:50;;;;;;;;;;;;;;;18.70;61.76;100069.16;2086699;28;20042;-64
2022/05/05 00:06:51;;;;;;;;;;;;;;;18.70;61.69;100069.16;2100284;28;19997;-63
2022/05/05 00:07:51;;;;;;;;;;;;;;;18.69;61.71;100070.16;2097412;28;19935;-63
2022/05/05 00:08:51;;;;;;;;;;;;;;;18.71;61.66;100070.84;2096108;28;19920;-64
2022/05/05 00:09:52;;;;;;;;;;;;;;;18.70;61.70;100068.28;2095970;28;19935;-63
2022/05/05 00:14:49;;;;;;;;;;;;;;;18.69;61.59;100067.44;2092586;28;19955;-62
2022/05/05 00:15:49;;;;;;;;;;;;;;;18.69;61.58;100067.44;2095988;28;19916;-63
2022/05/05 00:16:59;;;;;;;;;;;;;;;18.69;61.73;100067.44;2095191;28;19932;-63
2022/05/05 00:18:00;;;;;;;;;;;;;;;18.68;61.74;100076.63;2095859;28;19916;-64
2022/05/05 00:19:01;;;;;;;;;;;;;;;18.68;61.81;100065.69;2095572;28;20200;-63
2022/05/05 00:20:01;;;;;;;;;;;;;;;18.68;61.74;100064.84;2095620;28;20027;-63
2022/05/05 00:21:01;;;;;;;;;;;;;;;18.67;61.66;100061.25;2086894;28;20071;-63
2022/05/05 00:22:02;;;;;;;;;;;;;;;18.67;61.90;100069.44;2087263;28;19960;-63
2022/05/05 00:23:05;;;;;;;;;;;;;;;18.67;61.73;100068.56;2086694;28;19916;-62
2022/05/05 00:24:06;;;;;;;;;;;;;;;18.68;61.71;100064.84;2094938;28;19917;-64
2022/05/05 00:25:07;;;;;;;;;;;;;;;18.67;61.67;100068.56;2095239;28;20009;-63
2022/05/05 00:26:07;;;;;;;;;;;;;;;18.67;61.76;100063.09;2089017;28;20263;-63
2022/05/05 00:27:07;;;;;;;;;;;;;;;18.66;61.79;100064.97;2096002;28;20423;-63
2022/05/05 00:28:08;;;;;;;;;;;;;;;18.67;61.83;100063.09;2095134;28;19917;-63
2022/05/05 00:29:08;;;;;;;;;;;;;;;18.67;61.85;100066.72;2095239;28;19974;-63
2022/05/05 00:30:09;;;;;;;;;;;;;;;18.67;61.79;100060.38;2095620;28;19912;-64
2022/05/05 00:31:09;;;;;;;;;;;;;;;18.67;61.74;100064.00;2095167;28;20011;-63
2022/05/05 00:32:11;;;;;;;;;;;;;;;18.67;61.66;100061.25;2096059;28;19963;-63
2022/05/05 00:33:11;;;;;;;;;;;;;;;18.66;61.74;100059.53;2094075;28;19913;-63
2022/05/05 00:34:12;;;;;;;;;;;;;;;18.67;61.79;100063.09;2095136;28;20314;-63
2022/05/05 00:35:12;;;;;;;;;;;;;;;18.67;61.73;100063.09;2095751;28;19999;-63
2022/05/05 00:36:12;;;;;;;;;;;;;;;18.67;61.77;100063.09;2095596;28;20407;-63
2022/05/05 00:37:13;;;;;;;;;;;;;;;18.66;61.71;100062.25;2086781;28;20016;-63
2022/05/05 00:38:13;;;;;;;;;;;;;;;18.67;61.66;100060.38;2089531;28;19916;-63
2022/05/05 00:39:14;;;;;;;;;;;;;;;18.66;61.82;100051.31;2095970;28;20306;-63
2022/05/05 00:40:14;;;;;;;;;;;;;;;18.66;61.71;100061.41;2086729;28;19913;-63
2022/05/05 00:41:14;;;;;;;;;;;;;;;18.66;61.74;100055.94;2089349;28;19920;-63
2022/05/05 00:42:16;;;;;;;;;;;;;;;18.66;61.71;100055.94;2095664;28;19944;-63
2022/05/05 00:43:16;;;;;;;;;;;;;;;18.66;61.69;100056.78;2095202;28;19923;-63
2022/05/05 00:44:17;;;;;;;;;;;;;;;18.65;61.67;100055.09;2095600;28;19959;-63
2022/05/05 00:45:17;;;;;;;;;;;;;;;18.65;61.76;100055.09;2086193;28;19912;-64
2022/05/05 00:46:17;;;;;;;;;;;;;;;18.65;61.77;100055.09;2086500;28;20256;-63
2022/05/05 00:47:19;;;;;;;;;;;;;;;18.64;61.70;100054.22;2095750;28;19916;-63
2022/05/05 00:48:23;;;;;;;;;;;;;;;18.64;61.71;100058.81;2089575;28;20303;-63
2022/05/05 00:49:24;;;;;;;;;;;;;;;18.62;61.73;100050.78;2092773;28;19987;-63
2022/05/05 00:50:25;;;;;;;;;;;;;;;18.64;61.81;100058.81;2086388;28;19919;-63
2022/05/05 00:51:26;;;;;;;;;;;;;;;18.64;61.77;100051.50;2087663;28;19912;-63
2022/05/05 00:52:27;;;;;;;;;;;;;;;18.63;61.78;100046.19;2097328;28;20370;-63
2022/05/05 00:53:27;;;;;;;;;;;;;;;18.63;61.88;100048.91;2096034;28;19924;-63
2022/05/05 00:54:28;;;;;;;;;;;;;;;18.63;61.71;100046.19;2097402;28;19971;-64
2022/05/05 00:55:31;;;;;;;;;;;;;;;18.62;61.77;100045.31;2091956;28;19997;-64
2022/05/05 00:56:31;;;;;;;;;;;;;;;18.62;61.80;100050.78;2094962;28;20406;-63
2022/05/05 00:57:32;;;;;;;;;;;;;;;18.62;61.90;100044.47;2085495;28;20294;-63
2022/05/05 00:58:32;;;;;;;;;;;;;;;18.62;61.74;100050.78;2091899;28;19913;-63
2022/05/05 00:59:33;;;;;;;;;;;;;;;18.62;61.82;100044.47;2095705;28;19928;-64
2022/05/05 01:00:34;;;;;;;;;;;;;;;18.62;61.78;100044.47;2094820;28;20003;-64
2022/05/05 01:01:34;;;;;;;;;;;;;;;18.62;61.66;100047.19;2095045;28;20468;-63
2022/05/05 01:02:35;;;;;;;;;;;;;;;18.64;61.61;100047.88;2095414;28;19916;-64
2022/05/05 01:03:36;;;;;;;;;;;;;;;18.62;61.82;100044.47;2095120;28;19912;-64
2022/05/05 01:04:37;;;;;;;;;;;;;;;18.64;61.77;100056.06;2086375;28;19974;-63
2022/05/05 01:05:39;;;;;;;;;;;;;;;18.63;61.82;100046.19;2086028;28;19994;-64
2022/05/05 01:06:39;;;;;;;;;;;;;;;18.63;61.72;100051.63;2085809;28;19912;-63
2022/05/05 01:07:40;;;;;;;;;;;;;;;18.64;61.71;100050.63;2086840;28;19974;-63
2022/05/05 01:08:40;;;;;;;;;;;;;;;18.64;61.78;100047.88;2095110;28;20244;-63
2022/05/05 01:09:41;;;;;;;;;;;;;;;18.64;61.71;100047.88;2095777;28;20386;-63
2022/05/05 01:10:41;;;;;;;;;;;;;;;18.64;61.83;100043.31;2094787;28;19917;-63
2022/05/05 01:11:42;;;;;;;;;;;;;;;18.64;61.72;100042.41;2095340;28;19919;-63
2022/05/05 01:12:42;;;;;;;;;;;;;;;18.64;61.72;100047.88;2086504;28;19972;-63
2022/05/05 01:13:43;;;;;;;;;;;;;;;18.65;61.70;100049.63;2088727;28;20565;-62
2022/05/05 01:14:44;;;;;;;;;;;;;;;18.63;61.75;100046.19;2086740;28;19925;-62
2022/05/05 01:15:45;;;;;;;;;;;;;;;18.63;61.83;100049.75;2085646;28;19955;-63
2022/05/05 01:16:45;;;;;;;;;;;;;;;18.63;61.73;100046.19;2085630;28;20357;-63
2022/05/05 01:17:46;;;;;;;;;;;;;;;18.61;61.73;100043.59;2086328;28;20726;-63
2022/05/05 01:18:46;;;;;;;;;;;;;;;18.62;61.64;100044.47;2091788;28;19913;-64
2022/05/05 01:19:47;;;;;;;;;;;;;;;18.62;61.81;100044.47;2094539;28;19922;-63
2022/05/05 01:20:48;;;;;;;;;;;;;;;18.62;61.70;100041.75;2079470;28;19927;-63
2022/05/05 01:21:50;;;;;;;;;;;;;;;18.62;61.64;100044.47;2069669;28;20324;-63
2022/05/05 01:22:51;;;;;;;;;;;;;;;18.61;61.64;100046.31;2078811;28;19913;-63
2022/05/05 01:23:51;;;;;;;;;;;;;;;18.61;61.65;100048.19;2093504;28;20374;-63
2022/05/05 01:28:48;;;;;;;;;;;;;;;18.61;61.82;100040.00;2095202;28;20386;-63
2022/05/05 01:29:50;;;;;;;;;;;;;;;18.59;61.64;100045.63;2094816;28;20346;-63
2022/05/05 01:30:51;;;;;;;;;;;;;;;18.59;61.78;100039.28;2094603;28;19981;-64
2022/05/05 01:31:52;;;;;;;;;;;;;;;18.59;61.73;100044.75;2085890;28;19935;-64
2022/05/05 01:32:52;;;;;;;;;;;;;;;18.59;61.78;100039.28;2086750;28;19924;-63
2022/05/05 01:33:52;;;;;;;;;;;;;;;18.59;61.86;100040.16;2093207;28;19927;-63
2022/05/05 01:34:53;;;;;;;;;;;;;;;18.58;61.74;100038.44;2092314;28;20399;-63
2022/05/05 01:35:54;;;;;;;;;;;;;;;18.59;61.70;100039.28;2095332;28;19944;-64
2022/05/05 01:36:54;;;;;;;;;;;;;;;18.60;61.75;100041.03;2095172;28;19916;-63
2022/05/05 01:37:55;;;;;;;;;;;;;;;18.59;61.78;100039.28;2098022;28;19946;-64
2022/05/05 01:38:55;;;;;;;;;;;;;;;18.59;61.72;100039.28;2095185;28;19922;-63
2022/05/05 01:39:57;;;;;;;;;;;;;;;18.60;61.75;100038.28;2095088;28;20364;-64
2022/05/05 01:40:57;;;;;;;;;;;;;;;18.60;61.68;100038.28;2094022;28;19912;-62
2022/05/05 01:41:58;;;;;;;;;;;;;;;18.60;61.81;100035.56;2095394;28;20544;-63
2022/05/05 01:42:58;;;;;;;;;;;;;;;18.58;61.80;100040.31;2095238;28;20011;-64
2022/05/05 01:44:00;;;;;;;;;;;;;;;18.60;61.65;100046.47;2095572;28;20525;-63
2022/05/05 01:45:00;;;;;;;;;;;;;;;18.59;61.68;100045.63;2085746;28;19916;-63
2022/05/05 01:46:00;;;;;;;;;;;;;;;18.59;61.64;100048.34;2085989;28;19917;-63
2022/05/05 01:47:01;;;;;;;;;;;;;;;18.59;61.60;100045.63;2095373;28;20387;-63
2022/05/05 01:48:02;;;;;;;;;;;;;;;18.59;61.60;100050.19;2094642;28;19917;-63
2022/05/05 01:49:02;;;;;;;;;;;;;;;18.59;61.77;100047.47;2095556;28;19966;-62
2022/05/05 01:50:03;;;;;;;;;;;;;;;18.59;61.77;100044.75;2085889;28;19921;-64
2022/05/05 01:51:03;;;;;;;;;;;;;;;18.58;61.70;100048.50;2085477;28;19921;-63
2022/05/05 01:52:08;;;;;;;;;;;;;;;18.58;61.70;100051.22;2095158;28;20157;-63
2022/05/05 01:53:08;;;;;;;;;;;;;;;18.58;61.76;100049.34;2095022;28;20005;-63
2022/05/05 01:54:08;;;;;;;;;;;;;;;18.58;61.68;100043.03;2095019;28;19963;-64
2022/05/05 01:55:09;;;;;;;;;;;;;;;18.57;61.62;100047.63;2084805;28;20310;-64
2022/05/05 01:56:11;;;;;;;;;;;;;;;18.57;61.62;100046.75;2078139;28;20428;-62
2022/05/05 01:57:13;;;;;;;;;;;;;;;18.57;61.71;100052.22;2084754;28;19917;-63
2022/05/05 01:58:13;;;;;;;;;;;;;;;18.56;61.81;100048.63;2086130;28;19921;-63
2022/05/05 01:59:13;;;;;;;;;;;;;;;18.56;61.68;100045.91;2077663;28;19973;-63
2022/05/05 02:00:14;;;;;;;;;;;;;;;18.57;61.75;100049.47;2083925;28;20388;-64
2022/05/05 02:01:15;;;;;;;;;;;;;;;18.55;61.73;100049.66;2078653;28;19921;-63
2022/05/05 02:02:15;;;;;;;;;;;;;;;18.56;61.79;100050.50;2085044;28;20576;-63
2022/05/05 02:03:16;;;;;;;;;;;;;;;18.57;61.72;100041.28;2085763;28;20433;-62
2022/05/05 02:04:16;;;;;;;;;;;;;;;18.55;61.79;100048.78;2084410;28;19947;-63
2022/05/05 02:05:19;;;;;;;;;;;;;;;18.56;61.76;100050.50;2086553;28;20087;-62
2022/05/05 02:06:19;;;;;;;;;;;;;;;18.56;61.63;100048.63;2086908;28;19917;-62
2022/05/05 02:07:20;;;;;;;;;;;;;;;18.56;61.72;100050.50;2094076;28;19916;-63
2022/05/05 02:08:20;;;;;;;;;;;;;;;18.55;61.69;100054.25;2094540;28;20003;-63
2022/05/05 02:09:21;;;;;;;;;;;;;;;18.57;61.72;100058.56;2086077;28;20397;-63
2022/05/05 02:10:21;;;;;;;;;;;;;;;18.57;61.66;100063.13;2077029;28;19924;-63
2022/05/05 02:11:22;;;;;;;;;;;;;;;18.57;61.67;100057.66;2086747;28;20264;-62
2022/05/05 02:12:22;;;;;;;;;;;;;;;18.57;61.75;100052.22;2094889;28;19923;-63
2022/05/05 02:13:22;;;;;;;;;;;;;;;18.57;61.65;100065.84;2085166;28;19917;-63
2022/05/05 02:14:23;;;;;;;;;;;;;;;18.57;61.74;100061.28;2087951;28;19927;-63
2022/05/05 02:15:23;;;;;;;;;;;;;;;18.57;61.70;100065.84;2085510;28;20345;-63
2022/05/05 02:16:24;;;;;;;;;;;;;;;18.57;61.68;100068.59;2085879;28;20415;-63
2022/05/05 02:17:24;;;;;;;;;;;;;;;18.56;61.66;100062.28;2093673;28;20057;-63
2022/05/05 02:18:25;;;;;;;;;;;;;;;18.57;61.66;100066.75;2094973;28;20050;-63
2022/05/05 02:19:25;;;;;;;;;;;;;;;18.56;61.66;100056.81;2095365;28;19912;-63
2022/05/05 02:20:25;;;;;;;;;;;;;;;18.57;61.67;100069.47;2093837;28;19916;-64
2022/05/05 02:21:26;;;;;;;;;;;;;;;18.57;61.74;100060.41;2095098;28;19916;-63
2022/05/05 02:22:26;;;;;;;;;;;;;;;18.57;61.59;100063.13;2095324;28;19916;-63
2022/05/05 02:23:27;;;;;;;;;;;;;;;18.57;61.66;100057.66;2095144;28;19956;-63
2022/05/05 02:24:27;;;;;;;;;;;;;;;18.56;61.69;100061.41;2094843;28;20007;-64
2022/05/05 02:25:28;;;;;;;;;;;;;;;18.56;61.64;100055.97;2095373;28;19912;-62
2022/05/05 02:26:28;;;;;;;;;;;;;;;18.56;61.59;100061.41;2097426;28;20616;-63
2022/05/05 02:27:28;;;;;;;;;;;;;;;18.55;61.63;100048.78;2095305;28;19917;-62
2022/05/05 02:28:29;;;;;;;;;;;;;;;18.54;61.58;100058.81;2090046;28;20354;-63
2022/05/05 02:29:30;;;;;;;;;;;;;;;18.54;61.57;100056.09;2100240;28;19917;-62
2022/05/05 02:30:30;;;;;;;;;;;;;;;18.54;61.61;100047.91;2093502;28;19924;-63
2022/05/05 02:31:31;;;;;;;;;;;;;;;18.54;61.78;100058.81;2089852;28;20147;-63
2022/05/05 02:32:31;;;;;;;;;;;;;;;18.54;61.75;100058.81;2100198;28;19931;-63
2022/05/05 02:33:31;;;;;;;;;;;;;;;18.54;61.66;100060.69;2093518;28;19916;-63
2022/05/05 02:34:31;;;;;;;;;;;;;;;18.54;61.57;100052.50;2094971;28;20122;-63
2022/05/05 02:35:32;;;;;;;;;;;;;;;18.53;61.72;100061.72;2095326;28;19935;-62
2022/05/05 02:39:10;;;;;;;;;;;;;;;18.53;61.64;100061.72;2092085;28;19940;-63
2022/05/05 02:40:11;;;;;;;;;;;;;;;18.53;61.51;100062.56;2095279;28;19912;-63
2022/05/05 02:41:11;;;;;;;;;;;;;;;18.54;61.59;100057.97;2094583;28;20134;-63
2022/05/05 02:42:12;;;;;;;;;;;;;;;18.54;61.57;100057.97;2096746;28;19913;-63
2022/05/05 02:43:12;;;;;;;;;;;;;;;18.53;61.64;100064.44;2094515;28;20383;-62
2022/05/05 02:44:12;;;;;;;;;;;;;;;18.54;61.71;100063.44;2096598;28;19923;-63
2022/05/05 02:45:13;;;;;;;;;;;;;;;18.54;61.57;100063.44;2095470;28;19920;-64
2022/05/05 02:46:13;;;;;;;;;;;;;;;18.54;61.56;100071.63;2096410;28;19921;-63
2022/05/05 02:47:13;;;;;;;;;;;;;;;18.54;61.69;100071.63;2096013;28;20581;-63
2022/05/05 02:48:13;;;;;;;;;;;;;;;18.54;61.65;100068.88;2094709;28;19917;-63
2022/05/05 02:49:14;;;;;;;;;;;;;;;18.54;61.58;100069.75;2097040;28;19982;-63
2022/05/05 02:50:14;;;;;;;;;;;;;;;18.53;61.65;100068.03;2087085;28;20391;-63
2022/05/05 02:51:14;;;;;;;;;;;;;;;18.54;61.71;100068.88;2087829;28;19912;-64
2022/05/05 02:52:15;;;;;;;;;;;;;;;18.54;61.47;100066.16;2096364;28;19916;-63
2022/05/05 02:54:51;;;;;;;;;;;;;;;18.52;61.55;100059.97;2093455;28;19924;-63
2022/05/05 02:55:52;;;;;;;;;;;;;;;18.52;61.53;100066.34;2096666;28;20289;-63
2022/05/05 02:56:52;;;;;;;;;;;;;;;18.53;61.50;100064.44;2096190;28;19916;-63
2022/05/05 02:57:52;;;;;;;;;;;;;;;18.52;61.51;100070.91;2096212;28;19916;-63
2022/05/05 02:58:53;;;;;;;;;;;;;;;18.51;61.65;100070.03;2087714;28;19923;-63
2022/05/05 02:59:54;;;;;;;;;;;;;;;18.52;61.52;100065.44;2087328;28;19920;-63
2022/05/05 03:00:55;;;;;;;;;;;;;;;18.52;61.64;100074.53;2096840;28;19955;-63
2022/05/05 03:01:55;;;;;;;;;;;;;;;18.51;61.69;100063.72;2095893;28;20385;-63
2022/05/05 03:02:56;;;;;;;;;;;;;;;18.52;61.52;100062.72;2087893;28;20466;-64
2022/05/05 03:03:56;;;;;;;;;;;;;;;18.51;61.52;100063.72;2079220;28;19924;-64
2022/05/05 03:04:56;;;;;;;;;;;;;;;18.50;61.48;100062.88;2084405;28;19913;-63
2022/05/05 03:05:57;;;;;;;;;;;;;;;18.50;61.59;100060.16;2087460;28;19913;-62
2022/05/05 03:06:57;;;;;;;;;;;;;;;18.50;61.61;100062.03;2096280;28;19978;-63
2022/05/05 03:07:57;;;;;;;;;;;;;;;18.51;61.57;100055.53;2096279;28;20311;-63
2022/05/05 03:08:57;;;;;;;;;;;;;;;18.51;61.51;100052.81;2088477;28;19970;-63
2022/05/05 03:09:58;;;;;;;;;;;;;;;18.51;61.47;100058.28;2088926;28;20615;-63
2022/05/05 03:10:58;;;;;;;;;;;;;;;18.50;61.51;100062.03;2093652;28;19947;-63
2022/05/05 03:11:58;;;;;;;;;;;;;;;18.50;61.48;100062.88;2094765;28;19924;-62
2022/05/05 03:12:59;;;;;;;;;;;;;;;18.50;61.60;100059.28;2096298;28;20007;-63
2022/05/05 03:13:59;;;;;;;;;;;;;;;18.50;61.40;100056.56;2095984;28;20038;-63
2022/05/05 03:15:00;;;;;;;;;;;;;;;18.50;61.35;100053.84;2096164;28;19913;-64
2022/05/05 03:16:00;;;;;;;;;;;;;;;18.51;61.42;100061.00;2088227;28;20363;-62
2022/05/05 03:17:00;;;;;;;;;;;;;;;18.50;61.44;100062.88;2087382;28;19931;-62
2022/05/05 03:18:00;;;;;;;;;;;;;;;18.51;61.55;100061.00;2095981;28;19932;-63
2022/05/05 03:19:01;;;;;;;;;;;;;;;18.51;61.65;100066.47;2096337;28;20009;-64
2022/05/05 03:20:02;;;;;;;;;;;;;;;18.50;61.60;100068.34;2087366;28;19913;-64
2022/05/05 03:21:02;;;;;;;;;;;;;;;18.51;61.41;100066.47;2086972;28;19948;-62
2022/05/05 03:22:03;;;;;;;;;;;;;;;18.51;61.51;100069.19;2095565;28;20145;-63
2022/05/05 03:23:04;;;;;;;;;;;;;;;18.51;61.49;100061.84;2097714;28;19943;-63
2022/05/05 03:24:04;;;;;;;;;;;;;;;18.50;61.47;100062.88;2095463;28;19946;-63
2022/05/05 03:25:05;;;;;;;;;;;;;;;18.51;61.59;100069.19;2096001;28;20060;-62
2022/05/05 03:26:05;;;;;;;;;;;;;;;18.51;61.53;100064.59;2096356;28;19987;-62
2022/05/05 03:27:06;;;;;;;;;;;;;;;18.51;61.58;100069.19;2096603;28;19916;-64
2022/05/05 03:28:06;;;;;;;;;;;;;;;18.49;61.54;100063.00;2096226;28;19919;-64
2022/05/05 03:29:06;;;;;;;;;;;;;;;18.49;61.35;100065.75;2095674;28;20370;-62
2022/05/05 03:30:07;;;;;;;;;;;;;;;18.49;61.51;100066.59;2096117;28;19959;-63
2022/05/05 03:31:07;;;;;;;;;;;;;;;18.49;61.38;100065.75;2096145;28;19917;-63
2022/05/05 03:32:08;;;;;;;;;;;;;;;18.50;61.49;100067.47;2095781;28;20041;-64
2022/05/05 03:33:08;;;;;;;;;;;;;;;18.49;61.35;100069.31;2087446;28;19916;-62
2022/05/05 03:34:09;;;;;;;;;;;;;;;18.49;61.36;100071.19;2083283;28;20214;-63
2022/05/05 03:35:10;;;;;;;;;;;;;;;18.48;61.41;100064.03;2096355;28;19913;-63
2022/05/05 03:36:10;;;;;;;;;;;;;;;18.48;61.41;100064.03;2095820;28;19927;-64
2022/05/05 03:37:11;;;;;;;;;;;;;;;18.48;61.36;100066.75;2095970;28;19927;-64
2022/05/05 03:38:11;;;;;;;;;;;;;;;18.48;61.46;100064.03;2096651;28;19923;-63
2022/05/05 03:39:11;;;;;;;;;;;;;;;18.47;61.37;100068.63;2095750;28;20003;-63
2022/05/05 03:40:12;;;;;;;;;;;;;;;18.47;61.53;100063.19;2096292;28;19958;-63
2022/05/05 03:41:12;;;;;;;;;;;;;;;18.48;61.52;100074.94;2087136;28;19912;-63
2022/05/05 03:42:12;;;;;;;;;;;;;;;18.47;61.36;100073.22;2087960;28;20370;-64
2022/05/05 03:43:13;;;;;;;;;;;;;;;18.48;61.42;100069.50;2095984;28;19916;-64
2022/05/05 03:44:13;;;;;;;;;;;;;;;18.47;61.36;100074.09;2097737;28;20294;-62
2022/05/05 03:45:13;;;;;;;;;;;;;;;18.47;61.27;100067.75;2096467;28;19923;-62
2022/05/05 03:46:14;;;;;;;;;;;;;;;18.47;61.36;100073.22;2095618;28;19952;-63
2022/05/05 03:47:14;;;;;;;;;;;;;;;18.47;61.22;100075.94;2087415;28;20284;-63
2022/05/05 03:48:15;;;;;;;;;;;;;;;18.47;61.37;100073.22;2079130;28;20355;-62
2022/05/05 03:49:16;;;;;;;;;;;;;;;18.47;61.37;100073.22;2086772;28;19952;-63
2022/05/05 03:50:16;;;;;;;;;;;;;;;18.47;61.36;100078.66;2087811;28;19920;-62
2022/05/05 03:51:16;;;;;;;;;;;;;;;18.47;61.31;100070.47;2079864;28;20123;-63
2022/05/05 03:52:17;;;;;;;;;;;;;;;18.47;61.21;100073.22;2081945;28;19917;-63
2022/05/05 03:53:18;;;;;;;;;;;;;;;18.47;61.28;100073.22;2087080;28;19975;-64
2022/05/05 03:54:18;;;;;;;;;;;;;;;18.48;61.20;100074.94;2096023;28;19921;-62
2022/05/05 03:55:18;;;;;;;;;;;;;;;18.47;61.23;100073.22;2096165;28;19924;-63
2022/05/05 03:56:20;;;;;;;;;;;;;;;18.47;61.23;100076.81;2095763;28;20400;-63
2022/05/05 03:57:20;;;;;;;;;;;;;;;18.48;61.20;100080.41;2096223;28;19920;-63
2022/05/05 03:58:21;;;;;;;;;;;;;;;18.47;61.42;100079.56;2095855;28;19912;-63
2022/05/05 03:59:24;;;;;;;;;;;;;;;18.47;61.42;100081.41;2087490;28;19912;-64
2022/05/05 04:00:24;;;;;;;;;;;;;;;18.46;61.31;100077.81;2087583;28;19962;-63
2022/05/05 04:01:24;;;;;;;;;;;;;;;18.46;61.32;100083.28;2087155;28;19916;-63
2022/05/05 04:02:25;;;;;;;;;;;;;;;18.46;61.14;100082.41;2087134;28;19958;-63
2022/05/05 04:03:31;;;;;;;;;;;;;;;18.46;61.21;100082.41;2096288;28;20217;-64
2022/05/05 04:04:32;;;;;;;;;;;;;;;18.47;61.22;100078.66;2095850;28;20370;-64
2022/05/05 04:05:33;;;;;;;;;;;;;;;18.46;61.20;100080.53;2091957;28;20327;-63
2022/05/05 04:06:33;;;;;;;;;;;;;;;18.43;61.18;100078.13;2094103;28;19917;-63
2022/05/05 04:07:34;;;;;;;;;;;;;;;18.45;61.16;100075.22;2096049;28;19923;-63
2022/05/05 04:08:36;;;;;;;;;;;;;;;18.45;61.39;100075.22;2087127;28;19943;-63
2022/05/05 04:09:36;;;;;;;;;;;;;;;18.45;61.15;100070.66;2086406;28;19913;-62
2022/05/05 04:10:36;;;;;;;;;;;;;;;18.44;61.28;100074.38;2089669;28;19917;-62
2022/05/05 04:11:37;;;;;;;;;;;;;;;18.43;61.13;100073.50;2096108;28;19959;-63
2022/05/05 04:12:37;;;;;;;;;;;;;;;18.45;61.17;100075.22;2095595;28;20388;-63
2022/05/05 04:13:39;;;;;;;;;;;;;;;18.43;61.33;100073.50;2096337;28;20571;-63
2022/05/05 04:14:40;;;;;;;;;;;;;;;18.42;61.27;100071.81;2095809;28;20430;-63
2022/05/05 04:15:40;;;;;;;;;;;;;;;18.43;61.21;100070.78;2096158;28;20342;-63
2022/05/05 04:16:41;;;;;;;;;;;;;;;18.43;61.31;100073.50;2095866;28;19956;-62
2022/05/05 04:17:41;;;;;;;;;;;;;;;18.43;61.17;100073.50;2095758;28;20333;-62
2022/05/05 04:18:43;;;;;;;;;;;;;;;18.43;61.16;100084.44;2090417;28;19920;-63
2022/05/05 04:19:43;;;;;;;;;;;;;;;18.44;61.26;100074.38;2089590;28;19925;-64
2022/05/05 04:20:44;;;;;;;;;;;;;;;18.45;61.02;100080.69;2097907;28;19920;-63
2022/05/05 04:21:44;;;;;;;;;;;;;;;18.43;61.22;100087.16;2098495;28;20374;-63
2022/05/05 04:22:44;;;;;;;;;;;;;;;18.45;61.14;100080.69;2098555;28;19916;-63
2022/05/05 04:23:45;;;;;;;;;;;;;;;18.45;61.19;100080.69;2089577;28;19912;-63
2022/05/05 04:24:45;;;;;;;;;;;;;;;18.43;61.06;100087.16;2089608;28;19916;-63
2022/05/05 04:25:47;;;;;;;;;;;;;;;18.45;61.12;100091.59;2098559;28;19913;-63
2022/05/05 04:26:47;;;;;;;;;;;;;;;18.43;61.21;100087.16;2089878;28;20028;-63
2022/05/05 04:27:49;;;;;;;;;;;;;;;18.43;61.06;100098.06;2081633;28;19938;-64
2022/05/05 04:28:50;;;;;;;;;;;;;;;18.44;61.20;100098.94;2090016;28;19912;-64
2022/05/05 04:29:50;;;;;;;;;;;;;;;18.43;61.23;100103.53;2098144;28;19912;-64
2022/05/05 04:30:51;;;;;;;;;;;;;;;18.43;61.25;100103.53;2098898;28;19916;-64
2022/05/05 04:31:51;;;;;;;;;;;;;;;18.43;60.97;100100.81;2098665;28;19912;-65
2022/05/05 04:32:52;;;;;;;;;;;;;;;18.42;61.00;100104.56;2090011;28;19921;-63
2022/05/05 04:33:52;;;;;;;;;;;;;;;18.42;61.10;100103.66;2093092;28;20003;-63
2022/05/05 04:34:54;;;;;;;;;;;;;;;18.42;61.09;100100.94;2093054;28;19925;-63
2022/05/05 04:35:54;;;;;;;;;;;;;;;18.41;61.10;100102.81;2094097;28;20466;-63
2022/05/05 04:36:54;;;;;;;;;;;;;;;18.41;61.00;100100.09;2098147;28;20317;-64
2022/05/05 04:37:54;;;;;;;;;;;;;;;18.40;61.10;100101.09;2100589;28;20298;-63
2022/05/05 04:38:55;;;;;;;;;;;;;;;18.40;60.94;100106.56;2101320;28;19912;-63
2022/05/05 04:39:55;;;;;;;;;;;;;;;18.39;61.12;100102.09;2101605;28;19923;-63
2022/05/05 04:40:56;;;;;;;;;;;;;;;18.39;60.79;100110.28;2098579;28;19952;-64
2022/05/05 04:41:57;;;;;;;;;;;;;;;18.39;60.90;100110.28;2098400;28;19912;-64
2022/05/05 04:42:58;;;;;;;;;;;;;;;18.40;60.87;100113.91;2106744;28;19912;-64
2022/05/05 04:43:58;;;;;;;;;;;;;;;18.39;60.96;100110.28;2098088;28;20367;-64
2022/05/05 04:44:58;;;;;;;;;;;;;;;18.39;61.03;100113.00;2098217;28;19997;-65
2022/05/05 04:45:58;;;;;;;;;;;;;;;18.39;60.69;100121.19;2100372;28;19921;-63
2022/05/05 04:47:00;;;;;;;;;;;;;;;18.38;60.77;100114.03;2095463;28;20271;-63
2022/05/05 04:48:00;;;;;;;;;;;;;;;18.39;60.79;100117.63;2089843;28;19912;-64
2022/05/05 04:49:00;;;;;;;;;;;;;;;18.39;60.70;100126.66;2098190;28;19913;-64
2022/05/05 04:50:01;;;;;;;;;;;;;;;18.38;60.83;100119.50;2098202;28;19919;-63
2022/05/05 04:51:01;;;;;;;;;;;;;;;18.38;60.69;100124.94;2100947;28;19916;-63
2022/05/05 04:52:01;;;;;;;;;;;;;;;18.39;60.71;100121.19;2098070;28;19916;-64
2022/05/05 04:53:02;;;;;;;;;;;;;;;18.37;60.81;100123.22;2097935;28;19917;-63
2022/05/05 04:54:04;;;;;;;;;;;;;;;18.39;60.66;100126.66;2097948;28;19948;-64
2022/05/05 04:55:05;;;;;;;;;;;;;;;18.37;60.54;100123.22;2098383;28;19923;-64
2022/05/05 04:56:05;;;;;;;;;;;;;;;18.38;60.64;100124.94;2098618;28;19948;-63
2022/05/05 04:57:06;;;;;;;;;;;;;;;18.38;60.59;100124.94;2098166;28;19970;-64
2022/05/05 04:58:06;;;;;;;;;;;;;;;18.39;60.75;100131.25;2089480;28;19952;-64
2022/05/05 04:59:07;;;;;;;;;;;;;;;18.38;60.55;100133.13;2093346;28;19919;-63
2022/05/05 05:00:08;;;;;;;;;;;;;;;18.38;60.61;100138.59;2091290;28;19978;-63
2022/05/05 05:01:09;;;;;;;;;;;;;;;18.38;60.66;100140.47;2093975;28;19923;-63
2022/05/05 05:02:09;;;;;;;;;;;;;;;18.38;60.54;100141.31;2096886;28;20007;-63
2022/05/05 05:03:32;;;;;;;;;;;;;;;18.38;60.55;100137.75;2088463;28;19920;-65
2022/05/05 05:04:30;;;;;;;;;;;;;;;18.39;60.58;100144.91;2096862;28;20005;-63
2022/05/05 05:05:30;;;;;;;;;;;;;;;18.38;60.61;100140.47;2093439;28;19965;-64
2022/05/05 05:06:31;;;;;;;;;;;;;;;18.37;60.46;100139.63;2094943;28;20326;-65
2022/05/05 05:07:31;;;;;;;;;;;;;;;18.38;60.57;100144.06;2097447;28;19916;-64
2022/05/05 05:08:32;;;;;;;;;;;;;;;18.38;60.55;100140.47;2085698;28;19940;-64
2022/05/05 05:09:32;;;;;;;;;;;;;;;18.38;60.42;100145.94;2077475;28;20412;-63
2022/05/05 05:10:32;;;;;;;;;;;;;;;18.36;60.54;100143.31;2087072;28;20597;-63
2022/05/05 05:11:33;;;;;;;;;;;;;;;18.37;60.38;100153.25;2095607;28;19951;-65
2022/05/05 05:12:33;;;;;;;;;;;;;;;18.36;60.54;100148.78;2094890;28;20367;-64
2022/05/05 05:13:33;;;;;;;;;;;;;;;18.37;60.64;100150.53;2093941;28;20238;-64
2022/05/05 05:14:34;;;;;;;;;;;;;;;18.37;60.50;100149.63;2096524;28;19913;-64
2022/05/05 05:15:34;;;;;;;;;;;;;;;18.36;60.37;100154.25;2092764;28;19912;-64
2022/05/05 05:16:36;;;;;;;;;;;;;;;18.35;60.41;100149.81;2088598;28;19975;-65
2022/05/05 05:17:36;;;;;;;;;;;;;;;18.36;60.52;100159.69;2078273;28;19917;-65
2022/05/05 05:18:37;;;;;;;;;;;;;;;18.36;60.58;100156.13;2081018;28;20465;-65
2022/05/05 05:19:37;;;;;;;;;;;;;;;18.37;60.61;100155.09;2088296;28;19967;-64
2022/05/05 05:20:37;;;;;;;;;;;;;;;18.37;60.52;100156.00;2090959;28;19951;-65
2022/05/05 05:21:38;;;;;;;;;;;;;;;18.36;60.61;100153.38;2089175;28;20088;-65
2022/05/05 05:22:38;;;;;;;;;;;;;;;18.37;60.46;100164.16;2083710;28;19924;-64
2022/05/05 05:23:38;;;;;;;;;;;;;;;18.37;60.64;100158.72;2076927;28;19913;-64